Don Carlton — WDE8670 — position and weather

sailwx.info

Track history (hours):
 
Tides and Currents Weather Stations Pressure Air Temp Water Temp Dewpoint Dewpoint Depression Visibility Wind Speed Wind Dir Waves Ship Positions

Don Carlton

Owner: Florida Marine Transporters, Inc., Mandeville, LA. More information available from US FCC via Universal Licensing System and Coast Guard Vessel Documentation Center.

Last reported at 2017-Oct-14 18:55 UTC. Time now 2017-Nov-19 01:16 UTC.
Position N 30°24' W 086°51'.
Warning: this ship's position is 35 days out of date.

Length 28 m; draft 2.7 m.

Type: Towing. MMSI: 367408160.

Date/timePositionNaut miles runAvg speedWind from/ knotsBaromVisibWave heightAir tempDewpointWater temp
2017-Oct-14 18:55N 30°24' W 086°51'19 5.0
2017-Oct-14 15:07N 30°26' W 086°29'1 5.6
2017-Oct-14 15:00N 30°26' W 086°28'3 5.5
2017-Oct-14 14:30N 30°26' W 086°25'3 5.2
2017-Oct-14 14:00N 30°26' W 086°22'0 0.0
2017-Oct-12 18:48N 30°26' W 086°22'2 5.3
2017-Oct-12 18:30N 30°26' W 086°23'3 5.1
2017-Oct-12 18:00N 30°26' W 086°26'19 3.4
2017-Oct-12 12:36N 30°24' W 086°48'1 4.1
2017-Oct-12 12:26N 30°24' W 086°48'  
Track history (hours):
 
Tides and Currents Weather Stations Pressure Air Temp Water Temp Dewpoint Dewpoint Depression Visibility Wind Speed Wind Dir Waves Ship Positions

Don Carlton

Owner: Florida Marine Transporters, Inc., Mandeville, LA. More information available from US FCC via Universal Licensing System and Coast Guard Vessel Documentation Center.

Last reported at 2017-Oct-14 18:55 UTC. Time now 2017-Nov-19 01:16 UTC.
Position N 30°24' W 086°51'.
Warning: this ship's position is 35 days out of date.

Length 28 m; draft 2.7 m.

Type: Towing. MMSI: 367408160.

Date/timePositionNaut miles runAvg speedWind from/ knotsBaromVisibWave heightAir tempDewpointWater temp
2017-Oct-14 18:55N 30°24' W 086°51'19 5.0
2017-Oct-14 15:07N 30°26' W 086°29'1 5.6
2017-Oct-14 15:00N 30°26' W 086°28'3 5.5
2017-Oct-14 14:30N 30°26' W 086°25'3 5.2
2017-Oct-14 14:00N 30°26' W 086°22'0 0.0
2017-Oct-12 18:48N 30°26' W 086°22'2 5.3
2017-Oct-12 18:30N 30°26' W 086°23'3 5.1
2017-Oct-12 18:00N 30°26' W 086°26'19 3.4
2017-Oct-12 12:36N 30°24' W 086°48'1 4.1
2017-Oct-12 12:26N 30°24' W 086°48'  

Dump ship's entire track history